Time;durP1;ratioP1;P1;durP2;ratioP2;P2;SDS_P1;SDS_P2;PMS_P1;PMS_P2;Temp;Humidity;BMP_temperature;BMP_pressure;BME280_temperature;BME280_humidity;BME280_pressure;Samples;Min_cycle;Max_cycle;Signal;HPM_P1;HPM_P2
2022/04/29 00:01:58;;;;;;;1.80;1.70;;;;;;;9.72;100.00;91311.34;4973637;28;20033;-63
2022/04/29 00:04:24;;;;;;;2.08;1.75;;;;;;;9.66;100.00;91315.19;4973561;28;20109;-63
2022/04/29 00:06:50;;;;;;;2.38;1.80;;;;;;;9.83;100.00;91318.06;4973624;28;20031;-63
2022/04/29 00:09:15;;;;;;;2.42;2.30;;;;;;;9.79;100.00;91314.44;4972177;28;20109;-63
2022/04/29 00:11:41;;;;;;;0.90;0.90;;;;;;;9.86;100.00;91309.50;4973444;28;20505;-63
2022/04/29 00:14:06;;;;;;;2.30;2.10;;;;;;;9.83;100.00;91307.44;4973425;28;20043;-63
2022/04/29 00:16:31;;;;;;;2.15;1.95;;;;;;;9.81;100.00;91306.94;4971889;28;20039;-63
2022/04/29 00:18:57;;;;;;;2.45;1.90;;;;;;;9.81;100.00;91306.94;4973287;28;20114;-63
2022/04/29 00:21:23;;;;;;;1.65;1.60;;;;;;;9.80;100.00;91299.28;4973163;28;20420;-63
2022/04/29 00:23:49;;;;;;;1.85;1.75;;;;;;;9.73;100.00;91301.53;4973106;28;20468;-63
2022/04/29 00:26:14;;;;;;;1.63;1.58;;;;;;;9.59;100.00;91306.81;4973111;28;20051;-63
2022/04/29 00:28:40;;;;;;;1.20;1.20;;;;;;;9.53;100.00;91313.31;4973154;28;20038;-63
2022/04/29 00:31:05;;;;;;;2.15;2.05;;;;;;;9.60;100.00;91308.38;4973040;28;20096;-63
2022/04/29 00:33:31;;;;;;;1.63;1.55;;;;;;;9.61;100.00;91302.00;4972972;28;20070;-63
2022/04/29 00:35:56;;;;;;;1.35;1.35;;;;;;;9.74;100.00;91305.75;4973194;28;20118;-63
2022/04/29 00:38:22;;;;;;;4.40;2.10;;;;;;;9.73;100.00;91304.97;4972880;28;20050;-63
2022/04/29 00:40:49;;;;;;;1.80;1.63;;;;;;;9.79;100.00;91311.78;4972960;28;20053;-63
2022/04/29 00:43:14;;;;;;;1.40;1.40;;;;;;;9.80;100.00;91300.06;4972914;28;20579;-63
2022/04/29 00:45:40;;;;;;;1.65;1.55;;;;;;;9.76;100.00;91298.28;4972755;28;20042;-63
2022/04/29 00:48:08;;;;;;;2.60;2.05;;;;;;;9.72;100.00;91298.06;4972767;28;20436;-63
2022/04/29 00:50:35;;;;;;;1.35;1.25;;;;;;;9.82;100.00;91303.22;4972804;28;20038;-63
2022/04/29 00:53:02;;;;;;;2.17;2.08;;;;;;;9.74;100.00;91295.91;4972675;28;20035;-63
2022/04/29 00:55:34;;;;;;;2.35;2.25;;;;;;;9.80;100.00;91300.06;4972649;28;20042;-63
2022/04/29 00:58:18;;;;;;;1.30;1.30;;;;;;;9.84;100.00;91305.56;4972578;28;20093;-63
2022/04/29 01:00:43;;;;;;;2.25;2.05;;;;;;;9.80;100.00;91305.38;4972657;28;20165;-63
2022/04/29 01:03:14;;;;;;;1.65;1.55;;;;;;;9.81;100.00;91296.31;4971879;28;20469;-63
2022/04/29 01:05:40;;;;;;;1.80;1.70;;;;;;;9.78;100.00;91290.78;4972654;28;20513;-63
2022/04/29 01:08:07;;;;;;;1.85;1.75;;;;;;;9.76;100.00;91287.63;4972413;28;20528;-63
2022/04/29 01:10:32;;;;;;;2.95;2.67;;;;;;;9.74;100.00;91287.94;4972324;28;20046;-63
2022/04/29 01:13:00;;;;;;;2.55;2.35;;;;;;;9.68;100.00;91285.69;4972514;28;20043;-63
2022/04/29 01:15:26;;;;;;;1.63;1.52;;;;;;;9.64;100.00;91282.84;4972464;28;20043;-63
2022/04/29 01:17:59;;;;;;;1.67;1.58;;;;;;;9.50;100.00;91274.84;4972374;28;20043;-63
2022/04/29 01:20:28;;;;;;;1.65;1.55;;;;;;;9.41;100.00;91275.78;4972455;28;20125;-63
2022/04/29 01:22:55;;;;;;;2.03;1.92;;;;;;;9.34;100.00;91281.50;4964946;28;20485;-63
2022/04/29 01:25:21;;;;;;;3.35;1.88;;;;;;;9.33;100.00;91290.53;4972663;28;20039;-63
2022/04/29 01:27:46;;;;;;;1.50;1.40;;;;;;;9.34;100.00;91292.13;4972236;28;20039;-63
2022/04/29 01:30:13;;;;;;;3.50;1.60;;;;;;;9.40;100.00;91290.94;4972617;28;20046;-63
2022/04/29 01:32:40;;;;;;;1.73;1.63;;;;;;;9.51;100.00;91284.38;4972338;28;20046;-63
2022/04/29 01:35:08;;;;;;;2.33;2.13;;;;;;;9.48;100.00;91281.53;4972366;28;20042;-63
2022/04/29 01:37:33;;;;;;;1.15;1.10;;;;;;;9.40;100.00;91271.56;4972071;28;20112;-63
2022/04/29 01:40:00;;;;;;;3.38;3.08;;;;;;;9.24;100.00;91279.00;4972247;28;20050;-63
2022/04/29 01:42:26;;;;;;;1.88;1.77;;;;;;;9.11;100.00;91282.41;4972247;28;20055;-63
2022/04/29 01:44:51;;;;;;;1.75;1.65;;;;;;;9.26;100.00;91288.25;4972273;28;20042;-63
2022/04/29 01:47:17;;;;;;;1.30;1.30;;;;;;;9.43;100.00;91282.38;4972178;28;20513;-63
2022/04/29 01:49:42;;;;;;;2.05;1.95;;;;;;;9.48;100.00;91273.56;4972152;28;20110;-63
2022/04/29 01:52:08;;;;;;;1.48;1.38;;;;;;;9.48;100.00;91282.31;4970854;28;20062;-63
2022/04/29 01:54:37;;;;;;;1.60;1.50;;;;;;;9.52;100.00;91279.84;4972145;28;20046;-63
2022/04/29 01:57:05;;;;;;;1.52;1.50;;;;;;;9.45;100.00;91277.56;4971943;28;20027;-63
2022/04/29 01:59:31;;;;;;;1.33;1.23;;;;;;;9.39;100.00;91277.97;4972130;28;20051;-63
2022/04/29 02:01:57;;;;;;;1.50;1.48;;;;;;;9.39;100.00;91277.97;4972098;28;20073;-63
2022/04/29 02:04:23;;;;;;;2.03;1.83;;;;;;;9.37;100.00;91282.78;4971829;28;20519;-63
2022/04/29 02:06:49;;;;;;;2.17;1.65;;;;;;;9.41;100.00;91278.44;4971984;28;20035;-63
2022/04/29 02:09:14;;;;;;;5.75;2.05;;;;;;;9.44;100.00;91281.31;4971833;28;20494;-63
2022/04/29 02:11:40;;;;;;;4.40;2.30;;;;;;;9.42;100.00;91277.38;4972001;28;20389;-63
2022/04/29 02:14:05;;;;;;;1.60;1.50;;;;;;;9.25;100.00;91281.38;4972999;28;20058;-63
2022/04/29 02:16:31;;;;;;;1.17;1.17;;;;;;;9.11;100.00;91285.84;4975447;28;20408;-63
2022/04/29 02:18:56;;;;;;;1.73;1.63;;;;;;;9.10;100.00;91278.97;4975539;28;20035;-63
2022/04/29 02:21:22;;;;;;;3.55;2.72;;;;;;;9.03;100.00;91286.53;4975491;28;20440;-63
2022/04/29 02:23:47;;;;;;;1.88;1.77;;;;;;;8.92;100.00;91285.09;5126245;23;20046;-64
2022/04/29 02:26:13;;;;;;;1.65;1.55;;;;;;;8.80;100.00;91288.19;4994483;28;20451;-64
2022/04/29 02:28:39;;;;;;;1.30;1.30;;;;;;;8.73;100.00;91297.59;4994892;28;20033;-64
2022/04/29 02:31:04;;;;;;;1.73;1.63;;;;;;;8.64;100.00;91294.78;4994789;28;20070;-64
2022/04/29 02:33:31;;;;;;;1.90;1.80;;;;;;;8.51;100.00;91293.63;4994495;28;20400;-64
2022/04/29 02:35:57;;;;;;;1.65;1.20;;;;;;;8.50;100.00;91300.03;4994602;28;20037;-63
2022/04/29 02:38:23;;;;;;;2.08;1.98;;;;;;;8.48;100.00;91296.88;4994715;28;20030;-64
2022/04/29 02:40:51;;;;;;;2.47;2.35;;;;;;;8.60;100.00;91296.44;4994613;28;20131;-63
2022/04/29 02:43:17;;;;;;;1.63;1.52;;;;;;;8.61;100.00;91298.81;4994597;28;20490;-63
2022/04/29 02:45:44;;;;;;;3.83;2.72;;;;;;;8.56;100.00;91288.28;4994447;28;20038;-63
2022/04/29 02:48:10;;;;;;;2.75;1.75;;;;;;;8.70;100.00;91299.75;4994432;28;20040;-64
2022/04/29 02:50:36;;;;;;;2.65;2.42;;;;;;;8.76;100.00;91304.97;4994359;28;20038;-64
2022/04/29 02:53:02;;;;;;;2.20;2.00;;;;;;;8.75;100.00;91306.84;4994333;28;20507;-64
2022/04/29 02:55:27;;;;;;;1.02;1.02;;;;;;;8.78;100.00;91308.13;4994135;28;20041;-64
2022/04/29 02:57:53;;;;;;;3.30;3.10;;;;;;;8.75;100.00;91306.84;4994292;28;20431;-64
2022/04/29 03:00:19;;;;;;;1.73;1.63;;;;;;;8.77;100.00;91309.19;4994288;28;20047;-64
2022/04/29 03:02:44;;;;;;;2.53;2.38;;;;;;;8.74;100.00;91309.78;4994261;28;20030;-64
2022/04/29 03:05:10;;;;;;;1.85;1.75;;;;;;;8.80;100.00;91314.72;4993975;28;20085;-65
2022/04/29 03:07:35;;;;;;;2.53;2.30;;;;;;;8.82;100.00;91311.78;4994035;28;20027;-64
2022/04/29 03:10:01;;;;;;;3.35;2.47;;;;;;;8.72;100.00;91323.34;4994297;28;20062;-64
2022/04/29 03:12:26;;;;;;;1.98;1.88;;;;;;;8.69;100.00;91314.09;4994033;28;20056;-64
2022/04/29 03:14:52;;;;;;;2.05;1.95;;;;;;;8.73;100.00;91313.50;4993656;28;20118;-64
2022/04/29 03:20:09;;;;;;;1.20;1.13;;;;;;;8.67;100.00;91321.53;4982877;28;20049;-64
2022/04/29 03:22:35;;;;;;;2.13;1.98;;;;;;;8.68;100.00;91325.00;5013347;28;20060;-64
2022/04/29 03:25:00;;;;;;;4.32;3.65;;;;;;;8.75;100.00;91325.41;5012899;28;20488;-64
2022/04/29 03:27:26;;;;;;;2.13;2.03;;;;;;;8.78;100.00;91327.47;5012784;28;20026;-64
2022/04/29 03:29:51;;;;;;;3.55;3.22;;;;;;;8.82;100.00;91328.47;5013329;28;20487;-64
2022/04/29 03:32:18;;;;;;;3.17;2.05;;;;;;;8.83;100.00;91318.66;5013413;28;20091;-64
2022/04/29 03:34:43;;;;;;;1.92;1.83;;;;;;;8.94;100.00;91314.78;5013289;28;20033;-64
2022/04/29 03:37:09;;;;;;;2.42;2.25;;;;;;;9.03;100.00;91317.59;5013143;28;20030;-64
2022/04/29 03:39:34;;;;;;;3.75;2.00;;;;;;;9.08;100.00;91314.84;5013056;28;20034;-64
2022/04/29 03:42:00;;;;;;;2.90;2.58;;;;;;;9.15;100.00;91325.84;5013069;28;20022;-64
2022/04/29 03:44:25;;;;;;;3.85;2.17;;;;;;;9.13;100.00;91322.72;5012793;28;20038;-64
2022/04/29 03:46:51;;;;;;;2.90;2.25;;;;;;;9.20;100.00;91329.25;5012940;28;20109;-64
2022/04/29 03:52:00;;;;;;;2.08;1.95;;;;;;;9.09;100.00;91321.72;5013105;28;20562;-65
2022/04/29 03:54:26;;;;;;;2.42;2.15;;;;;;;9.14;100.00;91330.38;5012633;28;20026;-65
2022/04/29 03:56:52;;;;;;;1.33;1.27;;;;;;;9.19;100.00;91326.88;5012637;28;20022;-64
2022/04/29 03:59:18;;;;;;;1.85;1.75;;;;;;;9.34;100.00;91331.16;5012808;28;20040;-65
2022/04/29 04:01:43;;;;;;;4.68;3.05;;;;;;;9.37;100.00;91322.59;5012667;28;20511;-65
2022/04/29 04:04:09;;;;;;;1.90;1.80;;;;;;;9.54;100.00;91330.81;5012448;28;20121;-65
2022/04/29 04:06:50;;;;;;;1.90;1.80;;;;;;;9.66;100.00;91328.47;5010442;28;20025;-65
2022/04/29 04:09:17;;;;;;;1.45;1.35;;;;;;;9.72;100.00;91321.19;5012354;28;20029;-65
2022/04/29 04:11:42;;;;;;;2.25;2.05;;;;;;;9.84;100.00;91316.19;5011821;28;20046;-65
2022/04/29 04:14:09;;;;;;;1.48;1.38;;;;;;;9.72;100.00;91316.66;5011573;28;20056;-65
2022/04/29 04:16:36;;;;;;;2.15;2.00;;;;;;;9.82;100.00;91321.81;5012339;28;20030;-65
2022/04/29 04:19:02;;;;;;;2.03;1.92;;;;;;;9.68;100.00;91318.34;4994931;28;20033;-64
2022/04/29 04:21:28;;;;;;;1.58;1.48;;;;;;;9.62;100.00;91324.81;4992525;28;20065;-65
2022/04/29 04:23:54;;;;;;;1.65;1.55;;;;;;;9.76;100.00;91315.00;4992226;28;20081;-65
2022/04/29 04:26:20;;;;;;;2.13;1.92;;;;;;;9.96;100.00;91334.34;4992423;28;20554;-65
2022/04/29 04:28:46;;;;;;;2.53;2.33;;;;;;;9.98;100.00;91327.63;4992355;28;20438;-65
2022/04/29 04:31:11;;;;;;;3.80;2.58;;;;;;;10.14;100.00;91330.78;4992532;28;20026;-65
2022/04/29 04:33:37;;;;;;;1.45;1.42;;;;;;;10.23;100.00;91328.25;4992337;28;20120;-65
2022/04/29 04:36:04;;;;;;;1.95;1.85;;;;;;;10.35;100.00;91329.31;4992375;28;20036;-65
2022/04/29 04:38:32;;;;;;;2.00;1.63;;;;;;;10.36;100.00;91320.25;4992388;28;20039;-65
2022/04/29 04:40:58;;;;;;;1.70;1.52;;;;;;;10.35;100.00;91316.03;4992384;28;20018;-65
2022/04/29 04:43:25;;;;;;;1.40;1.30;;;;;;;10.41;100.00;91320.19;4992094;28;20046;-65
2022/04/29 04:45:51;;;;;;;1.52;1.42;;;;;;;10.67;100.00;91324.94;4992196;28;20511;-65
2022/04/29 04:48:18;;;;;;;1.65;1.55;;;;;;;10.48;100.00;91320.56;4991129;28;20567;-65
2022/04/29 04:50:43;;;;;;;1.60;1.50;;;;;;;10.40;100.00;91317.78;4991896;28;20141;-65
2022/04/29 04:53:09;;;;;;;2.75;2.28;;;;;;;10.53;100.00;91318.84;4991858;28;20035;-65
2022/04/29 04:55:36;;;;;;;0.98;0.98;;;;;;;10.65;100.00;91319.94;4991819;28;20033;-65
2022/04/29 04:58:02;;;;;;;2.10;2.00;;;;;;;10.77;100.00;91322.88;4991998;28;20033;-65
2022/04/29 05:00:27;;;;;;;1.60;1.50;;;;;;;10.98;100.00;91317.88;4991974;28;20022;-65
2022/04/29 05:02:52;;;;;;;1.90;1.80;;;;;;;11.01;100.00;91317.25;4991901;28;20065;-64
2022/04/29 05:05:18;;;;;;;1.88;1.77;;;;;;;10.77;100.00;91324.75;4991712;28;20034;-65
2022/04/29 05:07:43;;;;;;;2.13;1.92;;;;;;;10.67;100.00;91316.97;4991751;28;20084;-65
2022/04/29 05:10:11;;;;;;;1.73;1.60;;;;;;;10.88;100.00;91318.09;4991626;28;20121;-65
2022/04/29 05:12:43;;;;;;;2.47;2.13;;;;;;;11.33;100.00;91315.47;4987743;28;20042;-67
2022/04/29 05:15:10;;;;;;;3.10;2.08;;;;;;;12.71;100.00;91313.44;4991351;28;20042;-62
2022/04/29 05:17:38;;;;;;;1.75;1.65;;;;;;;14.36;94.36;91306.03;4991433;28;20389;-62
2022/04/29 05:20:05;;;;;;;1.90;1.77;;;;;;;14.54;83.23;91312.13;4991534;28;20038;-62
2022/04/29 05:22:30;;;;;;;2.05;1.55;;;;;;;13.62;86.84;91319.78;4991495;28;20480;-61
2022/04/29 05:24:56;;;;;;;3.53;2.53;;;;;;;12.62;94.69;91319.84;4991301;28;20046;-61
2022/04/29 05:27:22;;;;;;;2.03;1.90;;;;;;;12.23;100.00;91316.91;4991494;28;20027;-61
2022/04/29 05:29:47;;;;;;;2.60;2.08;;;;;;;12.10;100.00;91304.47;4991150;28;20034;-66
2022/04/29 05:32:14;;;;;;;1.67;1.58;;;;;;;12.20;100.00;91306.88;4991509;28;20034;-67
2022/04/29 05:34:40;;;;;;;2.35;1.95;;;;;;;11.85;100.00;91323.81;4973959;28;20032;-66
2022/04/29 05:37:05;;;;;;;1.77;1.67;;;;;;;11.47;100.00;91320.72;4991261;28;20022;-67
2022/04/29 05:42:15;;;;;;;2.78;1.95;;;;;;;11.05;100.00;91322.78;4991052;28;20416;-68
2022/04/29 05:44:41;;;;;;;4.20;3.85;;;;;;;10.75;100.00;91333.03;4991184;28;20030;-67
2022/04/29 05:47:07;;;;;;;2.22;2.13;;;;;;;10.98;100.00;91333.84;4991331;28;20026;-66
2022/04/29 05:49:33;;;;;;;1.70;1.60;;;;;;;10.89;100.00;91338.31;4993167;28;20639;-66
2022/04/29 05:52:01;;;;;;;3.97;2.33;;;;;;;10.88;100.00;91331.41;4995385;28;20088;-66
2022/04/29 05:54:27;;;;;;;1.52;1.50;;;;;;;10.98;100.00;91333.84;4994429;28;20042;-67
2022/04/29 05:56:52;;;;;;;2.08;1.98;;;;;;;11.08;100.00;91327.50;4994862;28;20042;-66
2022/04/29 05:59:17;;;;;;;2.53;1.40;;;;;;;11.01;100.00;91327.13;4994533;28;20429;-66
2022/04/29 06:01:43;;;;;;;1.95;1.85;;;;;;;11.20;100.00;91337.59;4994945;28;20041;-66
2022/04/29 06:04:08;;;;;;;1.40;1.40;;;;;;;11.03;100.00;91315.09;4994783;28;20469;-66
2022/04/29 06:06:34;;;;;;;2.65;1.83;;;;;;;11.66;100.00;91335.41;4994924;28;20439;-66
2022/04/29 06:08:59;;;;;;;3.28;2.13;;;;;;;11.59;100.00;91327.09;4978305;28;20022;-66
2022/04/29 06:11:25;;;;;;;2.50;1.98;;;;;;;11.63;100.00;91333.38;4978043;28;20066;-66
2022/04/29 06:13:51;;;;;;;1.77;1.67;;;;;;;11.38;100.00;91326.81;4994280;28;20064;-67
2022/04/29 06:16:17;;;;;;;2.75;2.50;;;;;;;11.21;100.00;91340.00;4977176;28;20030;-67
2022/04/29 06:18:43;;;;;;;2.10;2.00;;;;;;;11.33;100.00;91334.91;4994776;28;20543;-65
2022/04/29 06:21:08;;;;;;;1.55;1.45;;;;;;;11.15;100.00;91332.41;4994740;28;20085;-67
2022/04/29 06:23:35;;;;;;;1.33;1.27;;;;;;;11.21;100.00;91345.31;4994438;28;20500;-67
2022/04/29 06:26:00;;;;;;;1.20;1.20;;;;;;;11.13;100.00;91345.25;4994697;28;20085;-66
2022/04/29 06:28:26;;;;;;;1.42;1.33;;;;;;;11.13;100.00;91350.56;4994218;28;20074;-67
2022/04/29 06:30:51;;;;;;;1.67;1.58;;;;;;;10.96;100.00;91356.53;4994661;28;20484;-66
2022/04/29 06:33:17;;;;;;;1.73;1.63;;;;;;;11.29;100.00;91357.13;4994082;28;20030;-65
2022/04/29 06:35:42;;;;;;;1.40;1.30;;;;;;;11.50;100.00;91350.22;4994163;28;20034;-68
2022/04/29 06:38:11;;;;;;;1.10;1.10;;;;;;;11.68;100.00;91351.13;4994233;28;20519;-65
2022/04/29 06:40:37;;;;;;;2.33;2.13;;;;;;;11.64;100.00;91353.59;4994300;28;20034;-65
2022/04/29 06:43:02;;;;;;;1.55;1.45;;;;;;;11.82;100.00;91357.19;4993804;28;20035;-66
2022/04/29 06:45:28;;;;;;;1.42;1.42;;;;;;;11.58;100.00;91357.50;4994157;28;20037;-65
2022/04/29 06:47:53;;;;;;;1.30;1.20;;;;;;;11.51;100.00;91353.66;4994119;28;20078;-65
2022/04/29 06:50:19;;;;;;;1.85;1.75;;;;;;;11.44;100.00;91356.75;4994196;28;20041;-67
2022/04/29 06:52:44;;;;;;;2.35;2.20;;;;;;;11.44;100.00;91348.78;4993959;28;20110;-65
2022/04/29 06:55:10;;;;;;;2.72;2.53;;;;;;;11.55;100.00;91350.09;4993857;28;20065;-65
2022/04/29 06:57:35;;;;;;;1.38;1.33;;;;;;;11.96;100.00;91360.56;4993579;28;20030;-65
2022/04/29 07:00:02;;;;;;;1.85;1.75;;;;;;;12.04;99.89;91359.03;4993292;28;20038;-66
2022/04/29 07:02:27;;;;;;;2.47;2.33;;;;;;;11.92;97.18;91358.81;4975752;28;20030;-65
2022/04/29 07:04:55;;;;;;;1.60;1.50;;;;;;;11.64;100.00;91355.47;4993876;28;20410;-65
2022/04/29 07:07:21;;;;;;;2.47;1.85;;;;;;;11.47;100.00;91355.38;4993750;28;20109;-65
2022/04/29 07:09:46;;;;;;;1.88;1.77;;;;;;;11.73;100.00;91347.53;4993876;28;20044;-66
2022/04/29 07:12:12;;;;;;;2.10;2.00;;;;;;;12.48;97.78;91357.34;4993494;28;20026;-66
2022/04/29 07:14:37;;;;;;;2.53;2.33;;;;;;;12.60;98.78;91355.63;4993590;28;20543;-65
2022/04/29 07:17:03;;;;;;;1.83;1.70;;;;;;;12.60;95.50;91352.97;4993681;28;20027;-68
2022/04/29 07:19:28;;;;;;;1.73;1.63;;;;;;;12.51;96.45;91362.06;4993498;28;20042;-68
2022/04/29 07:21:54;;;;;;;2.10;1.95;;;;;;;12.57;98.18;91352.81;4993466;28;20042;-67
2022/04/29 07:24:19;;;;;;;2.75;2.55;;;;;;;12.46;98.18;91364.84;4993358;28;20050;-67
2022/04/29 07:26:45;;;;;;;1.77;1.67;;;;;;;12.48;99.73;91362.69;4992974;28;20473;-68
2022/04/29 07:29:11;;;;;;;1.70;1.60;;;;;;;12.35;99.09;91363.56;4993337;28;20106;-68
2022/04/29 07:31:36;;;;;;;2.30;2.10;;;;;;;11.98;100.00;91358.38;4993263;28;20030;-66
2022/04/29 07:34:02;;;;;;;1.50;1.40;;;;;;;12.40;100.00;91366.09;4993146;28;20034;-67
2022/04/29 07:41:56;;;;;;;1.10;1.10;;;;;;;12.58;98.12;91349.03;4993073;28;20041;-67
2022/04/29 07:44:22;;;;;;;1.38;1.27;;;;;;;12.79;97.10;91362.63;4993115;28;20034;-65
2022/04/29 07:46:49;;;;;;;1.20;1.20;;;;;;;13.12;98.01;91362.97;4993125;28;20390;-65
2022/04/29 07:49:15;;;;;;;3.78;1.77;;;;;;;12.89;96.36;91360.41;4993176;28;20053;-65
2022/04/29 07:51:41;;;;;;;4.15;3.10;;;;;;;13.16;99.77;91363.91;4993025;28;20496;-65
2022/04/29 07:54:07;;;;;;;1.63;1.52;;;;;;;13.98;91.56;91359.50;4992767;28;20034;-65
2022/04/29 07:56:33;;;;;;;1.10;1.10;;;;;;;14.35;87.91;91356.06;4992722;28;20408;-64
2022/04/29 07:58:59;;;;;;;2.22;2.03;;;;;;;14.09;84.97;91353.50;4992920;28;20040;-64
2022/04/29 08:01:26;;;;;;;1.75;1.65;;;;;;;13.86;88.71;91362.81;4992773;28;20396;-64
2022/04/29 08:03:55;;;;;;;1.40;1.23;;;;;;;14.13;87.47;91355.53;5009456;28;20030;-64
2022/04/29 08:06:21;;;;;;;1.23;1.17;;;;;;;14.01;84.69;91364.22;5011249;28;20045;-64
2022/04/29 08:08:47;;;;;;;1.60;1.50;;;;;;;13.65;92.12;91367.25;5011880;28;20112;-65
2022/04/29 08:11:12;;;;;;;1.33;1.23;;;;;;;13.75;90.85;91364.28;5011238;28;20555;-64
2022/04/29 08:13:39;;;;;;;1.75;1.65;;;;;;;13.13;91.07;91367.22;5011834;28;20044;-64
2022/04/29 08:16:05;;;;;;;2.25;2.10;;;;;;;13.41;96.25;91363.19;5012119;28;20118;-64
2022/04/29 08:18:31;;;;;;;1.10;1.10;;;;;;;13.62;91.01;91362.53;4994541;28;20053;-64
2022/04/29 08:20:57;;;;;;;1.65;1.55;;;;;;;13.92;92.00;91356.22;5012165;28;20029;-66
2022/04/29 08:23:23;;;;;;;1.80;1.70;;;;;;;14.15;86.47;91364.81;5011948;28;20096;-65
2022/04/29 08:25:48;;;;;;;1.50;1.40;;;;;;;14.24;83.55;91360.22;5011215;28;20053;-66
2022/04/29 08:28:14;;;;;;;1.65;1.58;;;;;;;13.25;87.39;91350.59;5011882;28;20064;-68
2022/04/29 08:30:40;;;;;;;3.50;1.58;;;;;;;12.39;99.89;91356.50;5011829;28;20109;-67
2022/04/29 08:33:10;;;;;;;1.60;1.58;;;;;;;12.93;100.00;91349.91;5011753;28;20048;-63
2022/04/29 08:35:37;;;;;;;1.60;1.50;;;;;;;13.44;99.80;91356.44;5011858;28;20045;-67
2022/04/29 08:38:02;;;;;;;1.10;1.05;;;;;;;13.72;93.85;91346.94;5011542;28;20503;-67
2022/04/29 08:40:28;;;;;;;2.45;1.23;;;;;;;13.35;93.53;91353.75;5011342;28;20037;-65
2022/04/29 08:42:56;;;;;;;2.42;1.63;;;;;;;14.00;91.30;91350.03;5011528;28;20042;-66
2022/04/29 08:45:22;;;;;;;2.72;2.50;;;;;;;13.83;92.15;91358.09;5011807;28;20034;-61
2022/04/29 08:47:48;;;;;;;1.83;1.15;;;;;;;13.94;93.38;91354.00;5011985;28;20026;-62
2022/04/29 08:50:16;;;;;;;2.13;1.98;;;;;;;13.82;89.30;91329.78;5013671;28;20037;-66
2022/04/29 08:52:42;;;;;;;1.30;1.30;;;;;;;14.11;85.75;91350.50;5013058;28;20412;-67
2022/04/29 09:01:05;;;;;;;2.00;1.90;;;;;;;14.41;86.59;91342.53;5005143;28;20053;-65
2022/04/29 09:03:30;;;;;;;2.67;2.15;;;;;;;14.59;81.49;91336.81;5011110;28;20037;-65
2022/04/29 09:05:56;;;;;;;1.55;1.45;;;;;;;14.60;79.92;91334.91;5011229;28;20120;-65
2022/04/29 09:08:23;;;;;;;1.40;1.30;;;;;;;14.87;81.97;91334.47;5011192;28;20112;-65
2022/04/29 09:10:57;;;;;;;1.67;1.58;;;;;;;14.35;84.36;91331.19;5010642;28;20026;-65
2022/04/29 09:13:25;;;;;;;2.45;2.03;;;;;;;14.62;85.61;91338.84;5011085;28;20030;-66
2022/04/29 09:15:54;;;;;;;1.50;1.38;;;;;;;14.95;80.00;91343.53;5010892;28;20421;-65
2022/04/29 09:18:43;;;;;;;4.57;2.47;;;;;;;14.18;82.63;91347.31;5011276;28;20103;-66
2022/04/29 09:21:14;;;;;;;5.50;3.45;;;;;;;13.70;84.94;91349.16;5011160;28;20092;-64
2022/04/29 09:23:43;;;;;;;1.33;1.27;;;;;;;13.18;90.47;91345.72;5010253;28;20060;-65
2022/04/29 09:26:24;;;;;;;1.42;1.33;;;;;;;13.31;94.09;91347.47;5010528;28;20057;-65
2022/04/29 09:28:52;;;;;;;1.40;1.30;;;;;;;13.94;92.23;91342.53;5011247;28;20034;-66
2022/04/29 09:31:18;;;;;;;1.80;1.70;;;;;;;13.70;89.35;91349.16;5010725;28;20034;-65
2022/04/29 09:33:57;;;;;;;1.33;1.20;;;;;;;13.63;89.32;91337.38;5010708;28;20041;-66
2022/04/29 09:36:24;;;;;;;2.25;2.00;;;;;;;13.71;90.76;91340.03;5010548;28;20387;-66
2022/04/29 09:41:39;;;;;;;1.80;1.67;;;;;;;13.40;90.72;91329.53;5010527;28;20558;-65
2022/04/29 09:44:05;;;;;;;1.30;1.20;;;;;;;13.98;90.77;91332.75;5010701;28;20037;-65
2022/04/29 09:46:31;;;;;;;1.27;1.27;;;;;;;14.08;88.44;91333.19;5010722;28;20061;-66
2022/04/29 09:49:06;;;;;;;1.63;1.52;;;;;;;14.49;84.98;91342.50;5010584;28;20044;-65
2022/04/29 09:51:51;;;;;;;2.03;1.92;;;;;;;14.84;81.64;91328.97;5010393;28;20517;-65
2022/04/29 09:54:23;;;;;;;2.15;1.95;;;;;;;14.90;81.77;91333.81;5010383;28;20121;-65
2022/04/29 09:57:16;;;;;;;1.60;1.50;;;;;;;14.80;80.56;91336.06;5010363;28;20022;-65
2022/04/29 09:59:41;;;;;;;1.15;1.15;;;;;;;14.66;82.67;91336.28;5010830;28;20034;-65
2022/04/29 10:02:09;;;;;;;1.42;1.33;;;;;;;15.51;77.56;91328.81;5010231;28;20049;-65
2022/04/29 10:04:38;;;;;;;1.90;1.80;;;;;;;14.85;77.58;91323.28;5010469;28;20033;-65
2022/04/29 10:07:05;;;;;;;1.13;1.10;;;;;;;15.35;76.57;91330.50;5010631;28;20123;-66
2022/04/29 10:09:34;;;;;;;2.42;1.83;;;;;;;15.78;73.31;91326.69;5010123;28;20022;-66
2022/04/29 10:12:02;;;;;;;3.25;1.58;;;;;;;16.06;72.83;91324.22;5010249;28;20529;-66
2022/04/29 10:14:30;;;;;;;1.52;1.42;;;;;;;15.71;72.87;91332.59;5010175;28;20030;-66
2022/04/29 10:22:46;;;;;;;1.92;1.17;;;;;;;16.45;70.33;91318.25;5010781;28;20148;-66
2022/04/29 10:25:12;;;;;;;1.45;1.35;;;;;;;16.93;69.20;91322.09;5010094;28;20053;-67
2022/04/29 10:27:42;;;;;;;2.10;2.00;;;;;;;16.80;68.32;91323.22;5010530;28;20018;-66
2022/04/29 10:30:08;;;;;;;1.70;1.60;;;;;;;17.27;66.64;91315.44;5010497;28;20524;-66
2022/04/29 10:33:00;;;;;;;2.13;2.03;;;;;;;17.05;65.14;91319.41;5010278;28;20018;-66
2022/04/29 10:35:56;;;;;;;1.85;1.75;;;;;;;17.03;67.02;91316.25;5011473;28;20038;-66
2022/04/29 10:38:32;;;;;;;1.77;1.67;;;;;;;16.45;66.12;91314.78;5012408;28;20030;-65
2022/04/29 10:41:07;;;;;;;1.80;1.70;;;;;;;16.45;67.94;91318.25;5011376;28;20021;-65
2022/04/29 10:43:36;;;;;;;1.48;1.40;;;;;;;16.55;66.00;91316.22;5013693;28;20105;-66
2022/04/29 10:46:04;;;;;;;1.42;1.35;;;;;;;16.41;65.99;91306.63;5012673;28;20037;-66
2022/04/29 10:48:31;;;;;;;1.23;1.23;;;;;;;15.47;69.24;91302.97;5013521;28;20109;-65
2022/04/29 10:50:57;;;;;;;3.15;2.88;;;;;;;15.68;70.12;91306.44;5013812;28;20394;-65
2022/04/29 10:53:24;;;;;;;1.60;1.50;;;;;;;15.97;73.01;91302.06;5013100;28;20036;-65
2022/04/29 10:55:49;;;;;;;2.05;1.95;;;;;;;16.42;68.30;91296.66;4995380;28;20030;-65
2022/04/29 10:58:21;;;;;;;3.22;2.28;;;;;;;16.01;70.40;91298.38;5013607;28;20021;-65
2022/04/29 11:01:16;;;;;;;1.73;1.63;;;;;;;15.98;70.47;91299.03;5013330;28;20476;-66
2022/04/29 11:03:44;;;;;;;1.50;1.40;;;;;;;15.64;70.42;91300.19;5012670;28;20038;-66
2022/04/29 11:06:12;;;;;;;1.85;1.75;;;;;;;15.68;72.15;91289.56;5013199;28;20037;-66
2022/04/29 11:08:38;;;;;;;1.85;1.75;;;;;;;15.93;71.73;91291.19;5013212;28;20021;-66
2022/04/29 11:11:04;;;;;;;1.95;1.85;;;;;;;16.01;70.93;91301.06;5012673;28;20030;-66
2022/04/29 11:13:34;;;;;;;1.20;1.20;;;;;;;16.27;68.39;91292.72;5013004;28;20036;-65
2022/04/29 11:16:16;;;;;;;2.10;1.92;;;;;;;15.46;72.00;91287.97;5013251;28;20107;-66
2022/04/29 11:18:44;;;;;;;2.80;2.47;;;;;;;15.65;71.82;91292.91;5013175;28;20484;-65
2022/04/29 11:26:49;;;;;;;4.90;3.35;;;;;;;15.69;72.22;91286.56;5013133;28;20409;-65
2022/04/29 11:29:17;;;;;;;2.10;1.92;;;;;;;14.84;74.71;91289.56;5012736;28;20029;-65
2022/04/29 11:31:43;;;;;;;1.60;1.50;;;;;;;14.59;77.24;91285.16;5012828;28;20030;-68
2022/04/29 11:34:15;;;;;;;2.08;1.85;;;;;;;14.41;80.96;91292.47;5012939;28;20040;-66
2022/04/29 11:36:43;;;;;;;2.57;2.37;;;;;;;14.33;84.26;91291.38;5012711;28;20025;-67
2022/04/29 11:39:19;;;;;;;1.42;1.30;;;;;;;14.41;83.40;91289.78;5012491;28;20113;-67
2022/04/29 11:41:58;;;;;;;1.80;1.60;;;;;;;14.59;80.06;91288.63;5012802;28;20033;-68
2022/04/29 11:44:36;;;;;;;2.13;1.90;;;;;;;14.70;82.49;91288.25;5012746;28;20030;-69
2022/04/29 11:47:02;;;;;;;6.35;4.70;;;;;;;14.93;80.53;91287.59;5012720;28;20033;-68
2022/04/29 11:49:32;;;;;;;2.03;1.92;;;;;;;15.33;77.23;91283.69;5013779;28;20032;-68
2022/04/29 11:52:26;;;;;;;1.63;1.52;;;;;;;15.36;73.43;91277.69;5012792;28;20125;-68
2022/04/29 11:54:52;;;;;;;;;;;;;;;14.94;76.84;91281.13;5012487;28;20519;-67
2022/04/29 11:57:17;;;;;;;2.10;1.90;;;;;;;14.75;77.96;91274.66;5012082;28;19913;-69
2022/04/29 11:59:44;;;;;;;1.45;1.40;;;;;;;15.15;76.44;91280.38;5012133;28;20157;-65
2022/04/29 12:02:11;;;;;;;2.03;1.92;;;;;;;15.76;73.95;91280.63;5012465;28;20080;-68
2022/04/29 12:04:37;;;;;;;3.35;3.10;;;;;;;15.81;71.87;91270.50;5011928;28;20101;-66
2022/04/29 12:07:05;;;;;;;1.65;1.55;;;;;;;15.18;74.23;91266.31;5012280;28;20053;-74